sensor_id;sensor_type;location;lat;lon;timestamp;P1;durP1;ratioP1;P2;durP2;ratioP2
68225;SDS011;55045;49.410;11.030;2024-02-15T00:00:48;19.52;;;15.45;;
68225;SDS011;55045;49.410;11.030;2024-02-15T00:03:52;21.17;;;15.27;;
68225;SDS011;55045;49.410;11.030;2024-02-15T00:06:58;18.02;;;13.88;;
68225;SDS011;55045;49.410;11.030;2024-02-15T00:10:02;19.10;;;13.15;;
68225;SDS011;55045;49.410;11.030;2024-02-15T00:13:06;17.45;;;14.20;;
68225;SDS011;55045;49.410;11.030;2024-02-15T00:16:12;14.63;;;13.15;;
68225;SDS011;55045;49.410;11.030;2024-02-15T00:19:17;16.25;;;13.82;;
68225;SDS011;55045;49.410;11.030;2024-02-15T00:22:22;17.58;;;13.18;;
68225;SDS011;55045;49.410;11.030;2024-02-15T00:25:25;17.92;;;13.63;;
68225;SDS011;55045;49.410;11.030;2024-02-15T00:28:29;14.60;;;13.00;;
68225;SDS011;55045;49.410;11.030;2024-02-15T00:31:32;17.77;;;13.88;;
68225;SDS011;55045;49.410;11.030;2024-02-15T00:34:37;17.63;;;13.10;;
68225;SDS011;55045;49.410;11.030;2024-02-15T00:37:43;14.88;;;13.35;;
68225;SDS011;55045;49.410;11.030;2024-02-15T00:40:47;14.48;;;12.93;;
68225;SDS011;55045;49.410;11.030;2024-02-15T00:43:51;14.77;;;13.27;;
68225;SDS011;55045;49.410;11.030;2024-02-15T00:46:57;14.85;;;13.35;;
68225;SDS011;55045;49.410;11.030;2024-02-15T00:50:01;16.67;;;13.60;;
68225;SDS011;55045;49.410;11.030;2024-02-15T00:53:07;14.55;;;12.93;;
68225;SDS011;55045;49.410;11.030;2024-02-15T00:56:10;14.30;;;12.82;;
68225;SDS011;55045;49.410;11.030;2024-02-15T00:59:14;17.17;;;13.15;;
68225;SDS011;55045;49.410;11.030;2024-02-15T01:02:18;14.93;;;13.10;;
68225;SDS011;55045;49.410;11.030;2024-02-15T01:05:21;17.17;;;13.13;;
68225;SDS011;55045;49.410;11.030;2024-02-15T01:08:28;14.90;;;12.82;;
68225;SDS011;55045;49.410;11.030;2024-02-15T01:11:32;15.27;;;12.68;;
68225;SDS011;55045;49.410;11.030;2024-02-15T01:14:37;15.38;;;13.35;;
68225;SDS011;55045;49.410;11.030;2024-02-15T01:17:43;16.52;;;13.25;;
68225;SDS011;55045;49.410;11.030;2024-02-15T01:20:47;17.75;;;13.15;;
68225;SDS011;55045;49.410;11.030;2024-02-15T01:23:52;15.43;;;13.20;;
68225;SDS011;55045;49.410;11.030;2024-02-15T01:26:57;18.88;;;14.60;;
68225;SDS011;55045;49.410;11.030;2024-02-15T01:30:01;16.50;;;14.32;;
68225;SDS011;55045;49.410;11.030;2024-02-15T01:33:05;19.27;;;14.35;;
68225;SDS011;55045;49.410;11.030;2024-02-15T01:36:13;17.15;;;13.98;;
68225;SDS011;55045;49.410;11.030;2024-02-15T01:39:19;19.33;;;14.65;;
68225;SDS011;55045;49.410;11.030;2024-02-15T01:42:22;15.05;;;13.40;;
68225;SDS011;55045;49.410;11.030;2024-02-15T01:45:27;20.27;;;14.57;;
68225;SDS011;55045;49.410;11.030;2024-02-15T01:48:33;16.55;;;13.13;;
68225;SDS011;55045;49.410;11.030;2024-02-15T01:51:37;17.42;;;14.07;;
68225;SDS011;55045;49.410;11.030;2024-02-15T01:54:44;16.17;;;14.25;;
68225;SDS011;55045;49.410;11.030;2024-02-15T01:57:49;16.92;;;14.23;;
68225;SDS011;55045;49.410;11.030;2024-02-15T02:00:53;15.13;;;13.52;;
68225;SDS011;55045;49.410;11.030;2024-02-15T02:03:58;19.92;;;14.55;;
68225;SDS011;55045;49.410;11.030;2024-02-15T02:07:03;16.63;;;13.52;;
68225;SDS011;55045;49.410;11.030;2024-02-15T02:10:09;18.35;;;13.93;;
68225;SDS011;55045;49.410;11.030;2024-02-15T02:13:16;18.63;;;14.07;;
68225;SDS011;55045;49.410;11.030;2024-02-15T02:16:26;17.88;;;13.13;;
68225;SDS011;55045;49.410;11.030;2024-02-15T02:19:30;14.35;;;12.50;;
68225;SDS011;55045;49.410;11.030;2024-02-15T02:22:33;18.23;;;13.43;;
68225;SDS011;55045;49.410;11.030;2024-02-15T02:25:40;16.40;;;13.07;;
68225;SDS011;55045;49.410;11.030;2024-02-15T02:28:44;16.85;;;12.55;;
68225;SDS011;55045;49.410;11.030;2024-02-15T02:31:50;14.93;;;13.20;;
68225;SDS011;55045;49.410;11.030;2024-02-15T02:34:53;16.73;;;13.50;;
68225;SDS011;55045;49.410;11.030;2024-02-15T02:37:59;15.30;;;13.00;;
68225;SDS011;55045;49.410;11.030;2024-02-15T02:41:06;15.27;;;12.30;;
68225;SDS011;55045;49.410;11.030;2024-02-15T02:44:10;16.95;;;12.40;;
68225;SDS011;55045;49.410;11.030;2024-02-15T02:47:16;17.95;;;13.35;;
68225;SDS011;55045;49.410;11.030;2024-02-15T02:50:20;19.65;;;13.40;;
68225;SDS011;55045;49.410;11.030;2024-02-15T02:53:25;18.58;;;13.55;;
68225;SDS011;55045;49.410;11.030;2024-02-15T02:56:29;17.48;;;13.27;;
68225;SDS011;55045;49.410;11.030;2024-02-15T02:59:34;20.73;;;14.18;;
68225;SDS011;55045;49.410;11.030;2024-02-15T03:02:40;16.95;;;13.55;;
68225;SDS011;55045;49.410;11.030;2024-02-15T03:05:45;17.75;;;13.40;;
68225;SDS011;55045;49.410;11.030;2024-02-15T03:08:49;18.48;;;14.05;;
68225;SDS011;55045;49.410;11.030;2024-02-15T03:11:57;17.38;;;13.27;;
68225;SDS011;55045;49.410;11.030;2024-02-15T03:15:01;17.98;;;13.80;;
68225;SDS011;55045;49.410;11.030;2024-02-15T03:18:05;19.98;;;13.70;;
68225;SDS011;55045;49.410;11.030;2024-02-15T03:21:10;18.42;;;14.35;;
68225;SDS011;55045;49.410;11.030;2024-02-15T03:24:14;20.10;;;14.50;;
68225;SDS011;55045;49.410;11.030;2024-02-15T03:27:19;17.15;;;12.98;;
68225;SDS011;55045;49.410;11.030;2024-02-15T03:30:25;19.27;;;13.93;;
68225;SDS011;55045;49.410;11.030;2024-02-15T03:36:37;14.10;;;11.95;;
68225;SDS011;55045;49.410;11.030;2024-02-15T03:39:41;14.23;;;12.68;;
68225;SDS011;55045;49.410;11.030;2024-02-15T03:42:46;16.85;;;12.65;;
68225;SDS011;55045;49.410;11.030;2024-02-15T03:45:50;14.15;;;12.18;;
68225;SDS011;55045;49.410;11.030;2024-02-15T03:48:54;12.80;;;11.50;;
68225;SDS011;55045;49.410;11.030;2024-02-15T03:51:59;13.90;;;11.07;;
68225;SDS011;55045;49.410;11.030;2024-02-15T03:55:03;16.17;;;11.98;;
68225;SDS011;55045;49.410;11.030;2024-02-15T03:58:09;14.57;;;10.88;;
68225;SDS011;55045;49.410;11.030;2024-02-15T04:01:12;13.10;;;11.23;;
68225;SDS011;55045;49.410;11.030;2024-02-15T04:04:17;14.30;;;11.60;;
68225;SDS011;55045;49.410;11.030;2024-02-15T04:07:25;14.38;;;11.82;;
68225;SDS011;55045;49.410;11.030;2024-02-15T04:10:31;13.98;;;11.45;;
68225;SDS011;55045;49.410;11.030;2024-02-15T04:13:39;15.27;;;11.93;;
68225;SDS011;55045;49.410;11.030;2024-02-15T04:16:43;14.15;;;11.73;;
68225;SDS011;55045;49.410;11.030;2024-02-15T04:19:46;13.65;;;12.27;;
68225;SDS011;55045;49.410;11.030;2024-02-15T04:22:52;22.02;;;13.57;;
68225;SDS011;55045;49.410;11.030;2024-02-15T04:25:58;18.75;;;13.63;;
68225;SDS011;55045;49.410;11.030;2024-02-15T04:29:04;17.45;;;14.65;;
68225;SDS011;55045;49.410;11.030;2024-02-15T04:34:39;24.20;;;14.15;;
68225;SDS011;55045;49.410;11.030;2024-02-15T04:37:43;23.95;;;14.30;;
68225;SDS011;55045;49.410;11.030;2024-02-15T04:40:49;18.02;;;13.48;;
68225;SDS011;55045;49.410;11.030;2024-02-15T04:43:53;19.27;;;14.10;;
68225;SDS011;55045;49.410;11.030;2024-02-15T04:46:58;20.25;;;14.43;;
68225;SDS011;55045;49.410;11.030;2024-02-15T04:50:04;19.42;;;14.23;;
68225;SDS011;55045;49.410;11.030;2024-02-15T04:53:09;17.35;;;14.55;;
68225;SDS011;55045;49.410;11.030;2024-02-15T04:56:13;18.52;;;14.05;;
68225;SDS011;55045;49.410;11.030;2024-02-15T04:59:17;16.83;;;13.35;;
68225;SDS011;55045;49.410;11.030;2024-02-15T05:02:22;15.82;;;12.30;;
68225;SDS011;55045;49.410;11.030;2024-02-15T05:05:28;17.42;;;12.40;;
68225;SDS011;55045;49.410;11.030;2024-02-15T05:08:34;16.48;;;11.88;;
68225;SDS011;55045;49.410;11.030;2024-02-15T05:11:44;20.50;;;12.52;;
68225;SDS011;55045;49.410;11.030;2024-02-15T05:14:50;12.70;;;11.13;;
68225;SDS011;55045;49.410;11.030;2024-02-15T05:17:58;15.80;;;11.40;;
68225;SDS011;55045;49.410;11.030;2024-02-15T05:21:07;16.25;;;12.55;;
68225;SDS011;55045;49.410;11.030;2024-02-15T05:24:12;13.07;;;11.40;;
68225;SDS011;55045;49.410;11.030;2024-02-15T05:27:17;15.68;;;11.82;;
68225;SDS011;55045;49.410;11.030;2024-02-15T05:30:20;13.07;;;11.45;;
68225;SDS011;55045;49.410;11.030;2024-02-15T05:33:25;16.88;;;12.23;;
68225;SDS011;55045;49.410;11.030;2024-02-15T05:36:30;12.60;;;11.43;;
68225;SDS011;55045;49.410;11.030;2024-02-15T05:39:34;18.08;;;12.32;;
68225;SDS011;55045;49.410;11.030;2024-02-15T05:42:37;17.10;;;12.68;;
68225;SDS011;55045;49.410;11.030;2024-02-15T05:45:41;13.93;;;12.15;;
68225;SDS011;55045;49.410;11.030;2024-02-15T05:48:44;14.88;;;12.77;;
68225;SDS011;55045;49.410;11.030;2024-02-15T05:51:50;16.40;;;13.52;;
68225;SDS011;55045;49.410;11.030;2024-02-15T05:54:56;17.27;;;12.97;;
68225;SDS011;55045;49.410;11.030;2024-02-15T05:57:59;17.02;;;12.80;;
68225;SDS011;55045;49.410;11.030;2024-02-15T06:01:03;19.42;;;12.20;;
68225;SDS011;55045;49.410;11.030;2024-02-15T06:04:11;17.70;;;12.95;;
68225;SDS011;55045;49.410;11.030;2024-02-15T06:07:16;14.52;;;12.52;;
68225;SDS011;55045;49.410;11.030;2024-02-15T06:10:21;17.98;;;13.95;;
68225;SDS011;55045;49.410;11.030;2024-02-15T06:13:25;15.25;;;12.98;;
68225;SDS011;55045;49.410;11.030;2024-02-15T06:16:29;17.20;;;13.07;;
68225;SDS011;55045;49.410;11.030;2024-02-15T06:19:33;18.02;;;13.60;;
68225;SDS011;55045;49.410;11.030;2024-02-15T06:22:38;15.63;;;13.68;;
68225;SDS011;55045;49.410;11.030;2024-02-15T06:25:44;16.30;;;13.50;;
68225;SDS011;55045;49.410;11.030;2024-02-15T06:28:51;13.93;;;12.52;;
68225;SDS011;55045;49.410;11.030;2024-02-15T06:32:12;16.80;;;13.50;;
68225;SDS011;55045;49.410;11.030;2024-02-15T06:35:34;15.65;;;13.80;;
68225;SDS011;55045;49.410;11.030;2024-02-15T06:38:56;14.57;;;12.68;;
68225;SDS011;55045;49.410;11.030;2024-02-15T06:42:32;15.32;;;12.90;;
68225;SDS011;55045;49.410;11.030;2024-02-15T06:45:36;14.98;;;12.90;;
68225;SDS011;55045;49.410;11.030;2024-02-15T06:48:41;18.40;;;13.75;;
68225;SDS011;55045;49.410;11.030;2024-02-15T06:51:47;15.52;;;13.40;;
68225;SDS011;55045;49.410;11.030;2024-02-15T06:54:52;18.27;;;13.38;;
68225;SDS011;55045;49.410;11.030;2024-02-15T06:57:56;20.27;;;13.05;;
68225;SDS011;55045;49.410;11.030;2024-02-15T07:01:00;15.57;;;13.27;;
68225;SDS011;55045;49.410;11.030;2024-02-15T07:04:04;17.20;;;14.07;;
68225;SDS011;55045;49.410;11.030;2024-02-15T07:07:08;13.95;;;12.50;;
68225;SDS011;55045;49.410;11.030;2024-02-15T07:10:13;16.55;;;13.48;;
68225;SDS011;55045;49.410;11.030;2024-02-15T07:13:18;17.00;;;14.32;;
68225;SDS011;55045;49.410;11.030;2024-02-15T07:16:22;16.83;;;13.95;;
68225;SDS011;55045;49.410;11.030;2024-02-15T07:19:26;14.02;;;12.48;;
68225;SDS011;55045;49.410;11.030;2024-02-15T07:22:32;13.65;;;12.00;;
68225;SDS011;55045;49.410;11.030;2024-02-15T07:25:38;13.70;;;11.40;;
68225;SDS011;55045;49.410;11.030;2024-02-15T07:28:46;13.35;;;11.82;;
68225;SDS011;55045;49.410;11.030;2024-02-15T07:31:52;13.45;;;11.55;;
68225;SDS011;55045;49.410;11.030;2024-02-15T07:34:56;12.95;;;11.65;;
68225;SDS011;55045;49.410;11.030;2024-02-15T07:38:01;13.88;;;11.32;;
68225;SDS011;55045;49.410;11.030;2024-02-15T07:41:08;12.75;;;11.35;;
68225;SDS011;55045;49.410;11.030;2024-02-15T07:44:12;14.20;;;11.35;;
68225;SDS011;55045;49.410;11.030;2024-02-15T07:47:18;12.77;;;11.48;;
68225;SDS011;55045;49.410;11.030;2024-02-15T07:50:25;16.27;;;12.10;;
68225;SDS011;55045;49.410;11.030;2024-02-15T07:53:31;12.70;;;11.45;;
68225;SDS011;55045;49.410;11.030;2024-02-15T07:56:40;12.00;;;10.90;;
68225;SDS011;55045;49.410;11.030;2024-02-15T07:59:43;13.18;;;11.98;;
68225;SDS011;55045;49.410;11.030;2024-02-15T08:02:48;12.85;;;11.60;;
68225;SDS011;55045;49.410;11.030;2024-02-15T08:05:52;13.80;;;12.40;;
68225;SDS011;55045;49.410;11.030;2024-02-15T08:08:58;12.38;;;11.27;;
68225;SDS011;55045;49.410;11.030;2024-02-15T08:12:03;11.85;;;10.70;;
68225;SDS011;55045;49.410;11.030;2024-02-15T08:15:07;11.60;;;10.50;;
68225;SDS011;55045;49.410;11.030;2024-02-15T08:18:14;14.25;;;11.80;;
68225;SDS011;55045;49.410;11.030;2024-02-15T08:21:18;12.18;;;10.85;;
68225;SDS011;55045;49.410;11.030;2024-02-15T08:24:28;12.88;;;11.68;;
68225;SDS011;55045;49.410;11.030;2024-02-15T08:27:35;13.70;;;12.40;;
68225;SDS011;55045;49.410;11.030;2024-02-15T08:30:43;13.45;;;12.13;;
68225;SDS011;55045;49.410;11.030;2024-02-15T08:33:48;14.38;;;12.82;;
68225;SDS011;55045;49.410;11.030;2024-02-15T08:36:52;12.65;;;11.63;;
68225;SDS011;55045;49.410;11.030;2024-02-15T08:39:56;12.13;;;11.02;;
68225;SDS011;55045;49.410;11.030;2024-02-15T08:43:01;13.32;;;12.13;;
68225;SDS011;55045;49.410;11.030;2024-02-15T08:46:05;12.70;;;11.70;;
68225;SDS011;55045;49.410;11.030;2024-02-15T08:49:09;12.85;;;11.55;;
68225;SDS011;55045;49.410;11.030;2024-02-15T08:52:16;12.93;;;11.73;;
68225;SDS011;55045;49.410;11.030;2024-02-15T08:55:20;13.27;;;11.98;;
68225;SDS011;55045;49.410;11.030;2024-02-15T08:58:30;12.77;;;11.82;;
68225;SDS011;55045;49.410;11.030;2024-02-15T09:01:34;12.23;;;11.25;;
68225;SDS011;55045;49.410;11.030;2024-02-15T09:04:37;13.05;;;11.70;;
68225;SDS011;55045;49.410;11.030;2024-02-15T09:07:46;12.77;;;11.75;;
68225;SDS011;55045;49.410;11.030;2024-02-15T09:10:50;12.10;;;11.30;;
68225;SDS011;55045;49.410;11.030;2024-02-15T09:13:57;12.63;;;11.60;;
68225;SDS011;55045;49.410;11.030;2024-02-15T09:17:01;21.35;;;14.75;;
68225;SDS011;55045;49.410;11.030;2024-02-15T09:20:10;19.58;;;17.52;;
68225;SDS011;55045;49.410;11.030;2024-02-15T09:23:17;13.68;;;12.48;;
68225;SDS011;55045;49.410;11.030;2024-02-15T09:26:21;12.82;;;11.82;;
68225;SDS011;55045;49.410;11.030;2024-02-15T09:29:26;13.48;;;12.18;;
68225;SDS011;55045;49.410;11.030;2024-02-15T09:32:32;13.98;;;12.68;;
68225;SDS011;55045;49.410;11.030;2024-02-15T09:35:37;12.55;;;11.50;;
68225;SDS011;55045;49.410;11.030;2024-02-15T09:38:41;12.18;;;11.20;;
68225;SDS011;55045;49.410;11.030;2024-02-15T09:41:44;12.65;;;11.55;;
68225;SDS011;55045;49.410;11.030;2024-02-15T09:44:50;12.02;;;11.02;;
68225;SDS011;55045;49.410;11.030;2024-02-15T09:47:54;14.57;;;13.35;;
68225;SDS011;55045;49.410;11.030;2024-02-15T09:51:01;13.48;;;12.38;;
68225;SDS011;55045;49.410;11.030;2024-02-15T09:54:08;11.20;;;10.40;;
68225;SDS011;55045;49.410;11.030;2024-02-15T09:57:15;27.10;;;20.30;;
68225;SDS011;55045;49.410;11.030;2024-02-15T10:00:22;16.40;;;14.80;;
68225;SDS011;55045;49.410;11.030;2024-02-15T10:03:26;14.40;;;13.10;;
68225;SDS011;55045;49.410;11.030;2024-02-15T10:06:33;12.43;;;11.43;;
68225;SDS011;55045;49.410;11.030;2024-02-15T10:09:37;11.45;;;10.63;;
68225;SDS011;55045;49.410;11.030;2024-02-15T10:12:45;16.52;;;15.00;;
68225;SDS011;55045;49.410;11.030;2024-02-15T10:15:52;13.68;;;10.80;;
68225;SDS011;55045;49.410;11.030;2024-02-15T10:18:58;11.73;;;10.82;;
68225;SDS011;55045;49.410;11.030;2024-02-15T10:22:12;12.70;;;10.95;;
68225;SDS011;55045;49.410;11.030;2024-02-15T10:25:17;10.68;;;9.82;;
68225;SDS011;55045;49.410;11.030;2024-02-15T10:28:21;10.70;;;9.90;;
68225;SDS011;55045;49.410;11.030;2024-02-15T10:34:44;13.77;;;12.68;;
68225;SDS011;55045;49.410;11.030;2024-02-15T10:37:48;12.63;;;11.63;;
68225;SDS011;55045;49.410;11.030;2024-02-15T10:40:53;10.20;;;9.40;;
68225;SDS011;55045;49.410;11.030;2024-02-15T10:44:07;10.90;;;10.30;;
68225;SDS011;55045;49.410;11.030;2024-02-15T10:47:11;10.93;;;10.27;;
68225;SDS011;55045;49.410;11.030;2024-02-15T10:50:17;11.10;;;10.40;;
68225;SDS011;55045;49.410;11.030;2024-02-15T10:53:21;9.18;;;8.57;;
68225;SDS011;55045;49.410;11.030;2024-02-15T10:56:34;11.50;;;10.40;;
68225;SDS011;55045;49.410;11.030;2024-02-15T10:59:43;11.13;;;10.30;;
68225;SDS011;55045;49.410;11.030;2024-02-15T11:03:00;10.65;;;9.15;;
68225;SDS011;55045;49.410;11.030;2024-02-15T11:06:08;10.65;;;8.77;;
68225;SDS011;55045;49.410;11.030;2024-02-15T11:09:14;9.27;;;8.57;;
68225;SDS011;55045;49.410;11.030;2024-02-15T11:12:18;9.35;;;8.55;;
68225;SDS011;55045;49.410;11.030;2024-02-15T11:18:46;11.40;;;10.30;;
68225;SDS011;55045;49.410;11.030;2024-02-15T11:21:58;8.85;;;7.95;;
68225;SDS011;55045;49.410;11.030;2024-02-15T11:25:05;8.13;;;7.53;;
68225;SDS011;55045;49.410;11.030;2024-02-15T11:31:54;7.03;;;6.53;;
68225;SDS011;55045;49.410;11.030;2024-02-15T11:35:02;4.85;;;4.28;;
68225;SDS011;55045;49.410;11.030;2024-02-15T11:38:13;4.85;;;4.43;;
68225;SDS011;55045;49.410;11.030;2024-02-15T11:41:31;7.25;;;6.57;;
68225;SDS011;55045;49.410;11.030;2024-02-15T11:44:35;6.40;;;5.18;;
68225;SDS011;55045;49.410;11.030;2024-02-15T11:47:39;8.57;;;5.10;;
68225;SDS011;55045;49.410;11.030;2024-02-15T11:50:45;6.68;;;6.00;;
68225;SDS011;55045;49.410;11.030;2024-02-15T11:53:59;5.20;;;3.80;;
68225;SDS011;55045;49.410;11.030;2024-02-15T11:57:10;4.88;;;3.90;;
68225;SDS011;55045;49.410;11.030;2024-02-15T12:00:20;4.00;;;3.60;;
68225;SDS011;55045;49.410;11.030;2024-02-15T12:03:43;5.70;;;3.67;;
68225;SDS011;55045;49.410;11.030;2024-02-15T12:07:09;3.63;;;3.30;;
68225;SDS011;55045;49.410;11.030;2024-02-15T12:10:32;6.38;;;3.35;;
68225;SDS011;55045;49.410;11.030;2024-02-15T12:13:53;5.43;;;2.92;;
68225;SDS011;55045;49.410;11.030;2024-02-15T12:17:15;2.67;;;2.42;;
68225;SDS011;55045;49.410;11.030;2024-02-15T12:20:45;2.60;;;1.90;;
68225;SDS011;55045;49.410;11.030;2024-02-15T12:23:49;2.15;;;2.05;;
68225;SDS011;55045;49.410;11.030;2024-02-15T12:27:00;2.78;;;1.90;;
68225;SDS011;55045;49.410;11.030;2024-02-15T12:30:06;1.60;;;1.60;;
68225;SDS011;55045;49.410;11.030;2024-02-15T12:33:12;1.33;;;1.23;;
68225;SDS011;55045;49.410;11.030;2024-02-15T12:36:23;3.55;;;1.67;;
68225;SDS011;55045;49.410;11.030;2024-02-15T12:39:28;2.13;;;1.15;;
68225;SDS011;55045;49.410;11.030;2024-02-15T12:42:38;1.55;;;1.27;;
68225;SDS011;55045;49.410;11.030;2024-02-15T12:45:42;2.70;;;1.50;;
68225;SDS011;55045;49.410;11.030;2024-02-15T12:48:46;2.00;;;1.80;;
68225;SDS011;55045;49.410;11.030;2024-02-15T12:51:53;3.33;;;1.70;;
68225;SDS011;55045;49.410;11.030;2024-02-15T12:55:17;3.33;;;1.83;;
68225;SDS011;55045;49.410;11.030;2024-02-15T12:58:24;2.92;;;1.60;;
68225;SDS011;55045;49.410;11.030;2024-02-15T13:01:30;4.75;;;1.80;;
68225;SDS011;55045;49.410;11.030;2024-02-15T13:04:36;3.53;;;1.48;;
68225;SDS011;55045;49.410;11.030;2024-02-15T13:07:40;2.50;;;1.48;;
68225;SDS011;55045;49.410;11.030;2024-02-15T13:10:44;3.15;;;1.48;;
68225;SDS011;55045;49.410;11.030;2024-02-15T13:13:50;2.65;;;1.60;;
68225;SDS011;55045;49.410;11.030;2024-02-15T13:16:53;4.60;;;1.60;;
68225;SDS011;55045;49.410;11.030;2024-02-15T13:19:57;3.38;;;3.08;;
68225;SDS011;55045;49.410;11.030;2024-02-15T13:23:07;5.65;;;3.28;;
68225;SDS011;55045;49.410;11.030;2024-02-15T13:26:16;2.08;;;1.27;;
68225;SDS011;55045;49.410;11.030;2024-02-15T13:29:23;5.55;;;1.63;;
68225;SDS011;55045;49.410;11.030;2024-02-15T13:32:27;5.07;;;1.50;;
68225;SDS011;55045;49.410;11.030;2024-02-15T13:35:31;2.05;;;1.30;;
68225;SDS011;55045;49.410;11.030;2024-02-15T13:38:35;1.17;;;1.10;;
68225;SDS011;55045;49.410;11.030;2024-02-15T13:41:39;8.65;;;4.82;;
68225;SDS011;55045;49.410;11.030;2024-02-15T13:44:44;11.63;;;4.38;;
68225;SDS011;55045;49.410;11.030;2024-02-15T13:47:49;9.85;;;2.35;;
68225;SDS011;55045;49.410;11.030;2024-02-15T13:50:57;13.23;;;5.45;;
68225;SDS011;55045;49.410;11.030;2024-02-15T13:54:01;3.15;;;2.10;;
68225;SDS011;55045;49.410;11.030;2024-02-15T13:57:05;2.13;;;1.20;;
68225;SDS011;55045;49.410;11.030;2024-02-15T14:00:11;2.20;;;1.20;;
68225;SDS011;55045;49.410;11.030;2024-02-15T14:03:16;1.30;;;1.20;;
68225;SDS011;55045;49.410;11.030;2024-02-15T14:06:21;1.67;;;1.35;;
68225;SDS011;55045;49.410;11.030;2024-02-15T14:09:26;3.58;;;1.50;;
68225;SDS011;55045;49.410;11.030;2024-02-15T14:12:30;1.73;;;1.40;;
68225;SDS011;55045;49.410;11.030;2024-02-15T14:15:35;2.42;;;1.50;;
68225;SDS011;55045;49.410;11.030;2024-02-15T14:18:41;3.28;;;1.40;;
68225;SDS011;55045;49.410;11.030;2024-02-15T14:21:47;2.50;;;1.10;;
68225;SDS011;55045;49.410;11.030;2024-02-15T14:24:51;2.35;;;1.20;;
68225;SDS011;55045;49.410;11.030;2024-02-15T14:27:54;2.15;;;1.00;;
68225;SDS011;55045;49.410;11.030;2024-02-15T14:31:00;4.13;;;1.45;;
68225;SDS011;55045;49.410;11.030;2024-02-15T14:34:21;1.98;;;1.23;;
68225;SDS011;55045;49.410;11.030;2024-02-15T14:37:27;3.13;;;1.08;;
68225;SDS011;55045;49.410;11.030;2024-02-15T14:40:32;7.93;;;1.48;;
68225;SDS011;55045;49.410;11.030;2024-02-15T14:43:39;1.98;;;1.20;;
68225;SDS011;55045;49.410;11.030;2024-02-15T14:46:44;4.88;;;1.50;;
68225;SDS011;55045;49.410;11.030;2024-02-15T14:49:48;2.78;;;1.08;;
68225;SDS011;55045;49.410;11.030;2024-02-15T14:52:52;1.02;;;0.93;;
68225;SDS011;55045;49.410;11.030;2024-02-15T14:55:56;4.80;;;1.00;;
68225;SDS011;55045;49.410;11.030;2024-02-15T14:59:00;1.58;;;0.90;;
68225;SDS011;55045;49.410;11.030;2024-02-15T15:02:05;1.52;;;0.80;;
68225;SDS011;55045;49.410;11.030;2024-02-15T15:05:13;2.20;;;0.93;;
68225;SDS011;55045;49.410;11.030;2024-02-15T15:08:35;1.50;;;0.90;;
68225;SDS011;55045;49.410;11.030;2024-02-15T15:11:57;3.22;;;1.20;;
68225;SDS011;55045;49.410;11.030;2024-02-15T15:15:18;4.22;;;1.10;;
68225;SDS011;55045;49.410;11.030;2024-02-15T15:18:23;2.08;;;1.10;;
68225;SDS011;55045;49.410;11.030;2024-02-15T15:21:27;3.13;;;1.17;;
68225;SDS011;55045;49.410;11.030;2024-02-15T15:24:31;3.28;;;1.30;;
68225;SDS011;55045;49.410;11.030;2024-02-15T15:27:35;3.67;;;1.40;;
68225;SDS011;55045;49.410;11.030;2024-02-15T15:30:39;2.03;;;1.20;;
68225;SDS011;55045;49.410;11.030;2024-02-15T15:33:45;1.05;;;1.05;;
68225;SDS011;55045;49.410;11.030;2024-02-15T15:36:50;2.00;;;1.20;;
68225;SDS011;55045;49.410;11.030;2024-02-15T15:39:56;4.38;;;1.30;;
68225;SDS011;55045;49.410;11.030;2024-02-15T15:43:00;1.55;;;1.40;;
68225;SDS011;55045;49.410;11.030;2024-02-15T15:46:04;1.60;;;1.50;;
68225;SDS011;55045;49.410;11.030;2024-02-15T15:49:09;1.83;;;1.58;;
68225;SDS011;55045;49.410;11.030;2024-02-15T15:52:13;1.60;;;1.50;;
68225;SDS011;55045;49.410;11.030;2024-02-15T15:55:17;5.97;;;1.50;;
68225;SDS011;55045;49.410;11.030;2024-02-15T15:58:21;1.42;;;1.20;;
68225;SDS011;55045;49.410;11.030;2024-02-15T16:01:26;3.15;;;1.50;;
68225;SDS011;55045;49.410;11.030;2024-02-15T16:04:32;3.03;;;1.40;;
68225;SDS011;55045;49.410;11.030;2024-02-15T16:07:36;1.98;;;1.50;;
68225;SDS011;55045;49.410;11.030;2024-02-15T16:10:40;3.80;;;1.50;;
68225;SDS011;55045;49.410;11.030;2024-02-15T16:13:44;2.70;;;2.08;;
68225;SDS011;55045;49.410;11.030;2024-02-15T16:16:49;3.95;;;1.63;;
68225;SDS011;55045;49.410;11.030;2024-02-15T16:19:54;1.60;;;1.50;;
68225;SDS011;55045;49.410;11.030;2024-02-15T16:22:57;2.50;;;1.50;;
68225;SDS011;55045;49.410;11.030;2024-02-15T16:26:01;2.55;;;1.55;;
68225;SDS011;55045;49.410;11.030;2024-02-15T16:29:08;2.45;;;1.55;;
68225;SDS011;55045;49.410;11.030;2024-02-15T16:34:39;2.15;;;1.92;;
68225;SDS011;55045;49.410;11.030;2024-02-15T16:37:43;2.88;;;1.98;;
68225;SDS011;55045;49.410;11.030;2024-02-15T16:40:48;2.35;;;2.20;;
68225;SDS011;55045;49.410;11.030;2024-02-15T16:43:52;2.65;;;2.17;;
68225;SDS011;55045;49.410;11.030;2024-02-15T16:46:59;3.75;;;2.05;;
68225;SDS011;55045;49.410;11.030;2024-02-15T16:50:05;2.92;;;2.00;;
68225;SDS011;55045;49.410;11.030;2024-02-15T16:53:10;3.60;;;2.15;;
68225;SDS011;55045;49.410;11.030;2024-02-15T16:56:15;6.28;;;3.75;;
68225;SDS011;55045;49.410;11.030;2024-02-15T16:59:20;5.90;;;3.92;;
68225;SDS011;55045;49.410;11.030;2024-02-15T17:02:23;5.85;;;3.35;;
68225;SDS011;55045;49.410;11.030;2024-02-15T17:05:29;8.63;;;3.60;;
68225;SDS011;55045;49.410;11.030;2024-02-15T17:08:33;5.10;;;3.33;;
68225;SDS011;55045;49.410;11.030;2024-02-15T17:11:37;4.43;;;3.72;;
68225;SDS011;55045;49.410;11.030;2024-02-15T17:14:42;3.60;;;3.20;;
68225;SDS011;55045;49.410;11.030;2024-02-15T17:17:46;3.63;;;3.05;;
68225;SDS011;55045;49.410;11.030;2024-02-15T17:20:52;6.32;;;3.53;;
68225;SDS011;55045;49.410;11.030;2024-02-15T17:23:55;3.55;;;3.17;;
68225;SDS011;55045;49.410;11.030;2024-02-15T17:26:59;3.92;;;3.40;;
68225;SDS011;55045;49.410;11.030;2024-02-15T17:30:04;4.50;;;3.85;;
68225;SDS011;55045;49.410;11.030;2024-02-15T17:33:10;5.55;;;3.65;;
68225;SDS011;55045;49.410;11.030;2024-02-15T17:36:17;7.97;;;4.70;;
68225;SDS011;55045;49.410;11.030;2024-02-15T17:39:21;4.55;;;3.85;;
68225;SDS011;55045;49.410;11.030;2024-02-15T17:42:24;8.88;;;4.63;;
68225;SDS011;55045;49.410;11.030;2024-02-15T17:45:28;5.40;;;4.90;;
68225;SDS011;55045;49.410;11.030;2024-02-15T17:48:32;7.20;;;6.60;;
68225;SDS011;55045;49.410;11.030;2024-02-15T17:51:37;8.60;;;7.85;;
68225;SDS011;55045;49.410;11.030;2024-02-15T17:57:47;8.10;;;6.07;;
68225;SDS011;55045;49.410;11.030;2024-02-15T18:00:53;9.55;;;8.45;;
68225;SDS011;55045;49.410;11.030;2024-02-15T18:03:57;8.07;;;6.70;;
68225;SDS011;55045;49.410;11.030;2024-02-15T18:07:02;10.63;;;9.52;;
68225;SDS011;55045;49.410;11.030;2024-02-15T18:10:06;8.32;;;7.65;;
68225;SDS011;55045;49.410;11.030;2024-02-15T18:13:12;9.77;;;8.93;;
68225;SDS011;55045;49.410;11.030;2024-02-15T18:16:16;12.70;;;10.35;;
68225;SDS011;55045;49.410;11.030;2024-02-15T18:19:20;13.77;;;12.48;;
68225;SDS011;55045;49.410;11.030;2024-02-15T18:22:25;19.08;;;17.38;;
68225;SDS011;55045;49.410;11.030;2024-02-15T18:25:30;25.48;;;23.25;;